Terminal Aerodrome Forecast
Issued by NWS Lake Charles, LA

Home | Current Version | Previous Version | Text Only | Print | Product List | Glossary On
Versions: 1 2 3 4 5 6 7 8 9 10 11 12 13 14 15 16 17
000
FTUS44 KLCH 011300 AAB
TAFLCH
TAF AMD
KLCH 011341Z 0114/0212 14004KT 4SM BR SCT018 BKN080
     FM011600 17006KT P6SM -RA FEW010 BKN015 OVC035
     FM020000 29008KT P6SM -RA OVC015
     FM020300 35012KT P6SM OVC015
     FM020600 35016KT P6SM OVC100=

USA.gov is the U.S. government's official web portal to all federal, state and local government web resources and services.